Time;durP1;ratioP1;P1;durP2;ratioP2;P2;SDS_P1;SDS_P2;PMS_P1;PMS_P2;Temp;Humidity;BMP_temperature;BMP_pressure;BME280_temperature;BME280_humidity;BME280_pressure;Samples;Min_cycle;Max_cycle;Signal;HPM_P1;HPM_P2
2021/10/18 00:00:06;;;;;;;42.45;27.73;;;;;;;;;;5019828;28;20060;-81
2021/10/18 00:02:32;;;;;;;45.72;27.20;;;;;;;;;;5020067;28;20400;-81
2021/10/18 00:04:58;;;;;;;43.58;27.33;;;;;;;;;;5002613;28;20400;-82
2021/10/18 00:07:24;;;;;;;44.40;27.77;;;;;;;;;;5020031;28;20044;-82
2021/10/18 00:09:50;;;;;;;48.55;27.23;;;;;;;;;;5002618;28;20036;-82
2021/10/18 00:12:16;;;;;;;44.95;26.00;;;;;;;;;;5019561;28;20030;-82
2021/10/18 00:14:43;;;;;;;43.42;25.58;;;;;;;;;;5020108;28;20026;-82
2021/10/18 00:17:09;;;;;;;44.38;27.10;;;;;;;;;;5019777;28;20361;-82
2021/10/18 00:19:35;;;;;;;41.95;24.98;;;;;;;;;;5019891;28;20022;-82
2021/10/18 00:22:01;;;;;;;42.88;25.52;;;;;;;;;;5001666;28;20231;-82
2021/10/18 00:24:27;;;;;;;40.95;24.95;;;;;;;;;;5019658;28;20029;-82
2021/10/18 00:26:53;;;;;;;42.88;24.88;;;;;;;;;;5019404;28;20030;-82
2021/10/18 00:29:19;;;;;;;45.85;26.27;;;;;;;;;;5019646;28;20034;-82
2021/10/18 00:31:45;;;;;;;40.42;26.33;;;;;;;;;;5019285;28;20038;-81
2021/10/18 00:34:11;;;;;;;42.33;25.73;;;;;;;;;;5019467;28;20030;-81
2021/10/18 00:36:38;;;;;;;39.72;25.13;;;;;;;;;;5019439;28;20018;-82
2021/10/18 00:39:04;;;;;;;42.30;25.65;;;;;;;;;;5019578;28;20028;-81
2021/10/18 00:41:30;;;;;;;41.40;23.95;;;;;;;;;;5019044;28;20073;-80
2021/10/18 00:43:56;;;;;;;45.22;25.90;;;;;;;;;;5001717;28;20443;-81
2021/10/18 00:46:24;;;;;;;41.58;24.30;;;;;;;;;;5001762;28;20025;-81
2021/10/18 00:48:51;;;;;;;38.00;24.98;;;;;;;;;;5019017;28;20034;-81
2021/10/18 00:51:18;;;;;;;40.42;24.85;;;;;;;;;;5019159;28;20033;-80
2021/10/18 00:53:45;;;;;;;37.72;24.70;;;;;;;;;;5019009;28;20361;-80
2021/10/18 00:56:11;;;;;;;38.80;24.85;;;;;;;;;;5001628;28;20070;-81
2021/10/18 00:58:38;;;;;;;42.15;26.52;;;;;;;;;;5019029;28;20115;-80
2021/10/18 01:01:04;;;;;;;45.08;25.13;;;;;;;;;;5001362;28;20057;-80
2021/10/18 01:03:30;;;;;;;40.33;24.70;;;;;;;;;;5001036;28;20065;-80
2021/10/18 01:05:56;;;;;;;40.15;23.85;;;;;;;;;;5018953;28;20026;-80
2021/10/18 01:08:23;;;;;;;43.25;24.98;;;;;;;;;;5000776;28;20034;-80
2021/10/18 01:10:49;;;;;;;42.83;25.40;;;;;;;;;;5018686;28;20028;-80
2021/10/18 01:13:15;;;;;;;51.97;28.85;;;;;;;;;;5018880;28;20044;-80
2021/10/18 01:15:41;;;;;;;47.90;28.95;;;;;;;;;;5000523;28;20124;-80
2021/10/18 01:18:07;;;;;;;50.22;28.02;;;;;;;;;;5001245;28;20412;-80
2021/10/18 01:20:37;;;;;;;46.85;27.95;;;;;;;;;;5018496;28;20408;-80
2021/10/18 01:23:04;;;;;;;39.58;26.00;;;;;;;;;;5018544;28;20045;-80
2021/10/18 01:25:30;;;;;;;48.83;28.25;;;;;;;;;;5017711;28;20309;-81
2021/10/18 01:27:57;;;;;;;47.83;28.90;;;;;;;;;;5000877;28;20055;-81
2021/10/18 01:30:23;;;;;;;49.65;30.27;;;;;;;;;;5018606;28;20018;-81
2021/10/18 01:32:50;;;;;;;59.00;32.60;;;;;;;;;;5018285;28;20057;-81
2021/10/18 01:35:16;;;;;;;53.90;34.63;;;;;;;;;;5018312;28;20138;-81
2021/10/18 01:37:42;;;;;;;62.28;34.47;;;;;;;;;;5018291;28;20025;-80
2021/10/18 01:40:09;;;;;;;55.40;33.08;;;;;;;;;;5018067;28;20049;-80
2021/10/18 01:42:35;;;;;;;60.00;32.92;;;;;;;;;;4999947;28;20030;-81
2021/10/18 01:45:01;;;;;;;56.20;31.17;;;;;;;;;;5018058;28;20141;-80
2021/10/18 01:47:27;;;;;;;53.90;31.05;;;;;;;;;;5018023;28;20029;-80
2021/10/18 01:49:56;;;;;;;50.65;29.88;;;;;;;;;;4999917;28;20046;-81
2021/10/18 01:52:23;;;;;;;51.67;28.70;;;;;;;;;;5018042;28;20049;-80
2021/10/18 01:54:49;;;;;;;45.53;26.63;;;;;;;;;;5000378;28;20030;-80
2021/10/18 01:57:15;;;;;;;36.90;24.80;;;;;;;;;;5017760;28;20022;-81
2021/10/18 01:59:42;;;;;;;41.95;24.25;;;;;;;;;;5017545;28;20053;-81
2021/10/18 02:02:08;;;;;;;44.50;26.20;;;;;;;;;;4999319;28;20034;-81
2021/10/18 02:04:34;;;;;;;41.70;24.35;;;;;;;;;;5017976;28;20360;-83
2021/10/18 02:07:01;;;;;;;38.50;22.83;;;;;;;;;;5017774;28;20443;-83
2021/10/18 02:09:27;;;;;;;37.03;22.13;;;;;;;;;;5017996;28;20034;-81
2021/10/18 02:11:53;;;;;;;41.30;23.50;;;;;;;;;;4999632;28;20073;-81
2021/10/18 02:14:19;;;;;;;39.30;23.67;;;;;;;;;;5017734;28;20025;-81
2021/10/18 02:16:45;;;;;;;41.95;24.70;;;;;;;;;;5017709;28;20026;-81
2021/10/18 02:19:11;;;;;;;40.17;23.65;;;;;;;;;;5017534;28;20055;-81
2021/10/18 02:21:37;;;;;;;40.13;24.63;;;;;;;;;;5017390;28;20026;-81
2021/10/18 02:24:04;;;;;;;41.50;25.05;;;;;;;;;;5017380;28;20034;-81
2021/10/18 02:26:30;;;;;;;40.70;24.75;;;;;;;;;;4999861;28;20036;-80
2021/10/18 02:28:56;;;;;;;41.72;24.50;;;;;;;;;;5000034;28;20026;-80
2021/10/18 02:31:22;;;;;;;41.65;24.30;;;;;;;;;;5017180;28;20026;-80
2021/10/18 02:33:48;;;;;;;37.80;23.67;;;;;;;;;;5017283;28;20038;-81
2021/10/18 02:36:14;;;;;;;42.58;24.27;;;;;;;;;;5017078;28;20026;-80
2021/10/18 02:38:40;;;;;;;36.00;23.27;;;;;;;;;;5017477;28;20313;-80
2021/10/18 02:41:07;;;;;;;44.05;24.90;;;;;;;;;;5017215;28;20113;-81
2021/10/18 02:43:33;;;;;;;42.47;25.13;;;;;;;;;;5017433;28;20088;-80
2021/10/18 02:45:59;;;;;;;42.80;25.73;;;;;;;;;;5017207;28;20081;-79
2021/10/18 02:48:25;;;;;;;37.45;24.27;;;;;;;;;;5017281;28;20018;-79
2021/10/18 02:50:52;;;;;;;37.70;24.80;;;;;;;;;;5017334;28;20022;-82
2021/10/18 02:53:19;;;;;;;44.90;25.10;;;;;;;;;;5017171;28;20022;-82
2021/10/18 02:55:45;;;;;;;43.03;26.83;;;;;;;;;;5017017;28;20063;-82
2021/10/18 02:58:11;;;;;;;39.75;25.38;;;;;;;;;;5016993;28;20033;-81
2021/10/18 03:00:37;;;;;;;46.83;25.38;;;;;;;;;;5016526;28;20420;-82
2021/10/18 03:03:03;;;;;;;42.88;25.63;;;;;;;;;;5016866;28;20026;-82
2021/10/18 03:05:29;;;;;;;40.67;25.80;;;;;;;;;;5017251;28;20108;-82
2021/10/18 03:07:55;;;;;;;43.50;26.85;;;;;;;;;;5017127;28;20022;-81
2021/10/18 03:10:21;;;;;;;45.33;28.05;;;;;;;;;;5016929;28;20041;-81
2021/10/18 03:12:48;;;;;;;50.10;30.10;;;;;;;;;;5016915;28;20061;-82
2021/10/18 03:15:14;;;;;;;41.70;27.33;;;;;;;;;;5017009;28;20037;-81
2021/10/18 03:17:43;;;;;;;44.85;26.60;;;;;;;;;;4999560;28;20349;-81
2021/10/18 03:20:10;;;;;;;44.40;27.35;;;;;;;;;;5016692;28;20022;-81
2021/10/18 03:22:36;;;;;;;42.55;27.33;;;;;;;;;;4999416;28;20030;-82
2021/10/18 03:25:02;;;;;;;44.08;28.45;;;;;;;;;;5016814;28;20025;-81
2021/10/18 03:27:28;;;;;;;47.13;28.35;;;;;;;;;;5016647;28;20372;-80
2021/10/18 03:29:55;;;;;;;44.65;29.15;;;;;;;;;;5016670;28;20294;-80
2021/10/18 03:32:21;;;;;;;41.63;27.55;;;;;;;;;;5016777;28;20030;-80
2021/10/18 03:34:47;;;;;;;44.25;28.95;;;;;;;;;;5016799;28;20113;-80
2021/10/18 03:37:13;;;;;;;44.35;28.00;;;;;;;;;;5017000;28;20022;-80
2021/10/18 03:39:39;;;;;;;47.05;29.52;;;;;;;;;;5017196;28;20030;-80
2021/10/18 03:42:05;;;;;;;46.42;29.92;;;;;;;;;;5016571;28;20026;-80
2021/10/18 03:44:31;;;;;;;47.55;28.00;;;;;;;;;;5016694;28;20407;-81
2021/10/18 03:46:57;;;;;;;51.65;30.00;;;;;;;;;;5016429;28;20412;-81
2021/10/18 03:49:23;;;;;;;50.15;29.20;;;;;;;;;;5020470;28;20034;-82
2021/10/18 03:51:49;;;;;;;50.20;29.67;;;;;;;;;;5002931;28;20116;-81
2021/10/18 03:54:15;;;;;;;51.08;30.38;;;;;;;;;;5020126;28;20026;-82
2021/10/18 03:56:44;;;;;;;53.97;30.88;;;;;;;;;;5019919;28;20025;-82
2021/10/18 03:59:10;;;;;;;50.50;29.55;;;;;;;;;;5019983;28;20444;-81
2021/10/18 04:01:36;;;;;;;48.97;29.65;;;;;;;;;;5002363;28;20440;-81
2021/10/18 04:04:02;;;;;;;46.72;30.50;;;;;;;;;;5019936;28;20061;-80
2021/10/18 04:06:30;;;;;;;50.95;31.13;;;;;;;;;;5019926;28;20443;-80
2021/10/18 04:08:57;;;;;;;55.45;31.70;;;;;;;;;;5020071;28;20045;-80
2021/10/18 04:11:23;;;;;;;51.90;32.13;;;;;;;;;;5019853;28;20033;-80
2021/10/18 04:13:49;;;;;;;51.47;32.33;;;;;;;;;;5019483;28;20025;-79
2021/10/18 04:16:15;;;;;;;59.15;33.67;;;;;;;;;;5019640;28;20026;-80
2021/10/18 04:18:41;;;;;;;51.83;31.50;;;;;;;;;;5019745;28;20022;-80
2021/10/18 04:21:07;;;;;;;50.78;31.10;;;;;;;;;;5019779;28;20152;-81
2021/10/18 04:23:34;;;;;;;54.28;31.05;;;;;;;;;;5019589;28;20022;-80
2021/10/18 04:26:00;;;;;;;57.92;33.20;;;;;;;;;;5001501;28;20038;-80
2021/10/18 04:28:26;;;;;;;59.38;33.75;;;;;;;;;;5002100;28;20022;-80
2021/10/18 04:30:52;;;;;;;54.67;33.60;;;;;;;;;;5019270;28;20025;-81
2021/10/18 04:33:19;;;;;;;54.33;33.85;;;;;;;;;;5019538;28;20029;-80
2021/10/18 04:35:46;;;;;;;54.55;33.47;;;;;;;;;;5019390;28;20052;-80
2021/10/18 04:38:12;;;;;;;59.05;34.88;;;;;;;;;;5019306;28;20030;-80
2021/10/18 04:40:38;;;;;;;103.20;64.85;;;;;;;;;;5019240;28;20030;-80
2021/10/18 04:43:04;;;;;;;106.00;67.10;;;;;;;;;;5019263;28;20021;-81
2021/10/18 04:45:31;;;;;;;102.60;68.97;;;;;;;;;;5019284;28;20038;-80
2021/10/18 04:47:57;;;;;;;92.90;60.22;;;;;;;;;;5019212;28;20080;-80
2021/10/18 04:50:23;;;;;;;70.65;45.72;;;;;;;;;;5019254;28;20046;-81
2021/10/18 04:52:49;;;;;;;56.45;35.75;;;;;;;;;;5018913;28;20030;-80
2021/10/18 04:55:16;;;;;;;81.80;40.92;;;;;;;;;;5018987;28;20026;-81
2021/10/18 04:57:48;;;;;;;110.47;44.45;;;;;;;;;;5018805;28;20087;-80
2021/10/18 05:00:15;;;;;;;166.27;56.13;;;;;;;;;;5001360;28;20320;-81
2021/10/18 05:02:41;;;;;;;166.35;54.10;;;;;;;;;;5000575;28;20063;-81
2021/10/18 05:05:07;;;;;;;121.60;47.00;;;;;;;;;;5018867;28;20026;-81
2021/10/18 05:07:33;;;;;;;136.25;48.75;;;;;;;;;;5018925;28;20029;-81
2021/10/18 05:09:59;;;;;;;147.32;59.40;;;;;;;;;;5019032;28;20026;-80
2021/10/18 05:12:25;;;;;;;128.18;58.88;;;;;;;;;;5001333;28;20080;-81
2021/10/18 05:14:51;;;;;;;109.50;59.05;;;;;;;;;;5018796;28;20026;-80
2021/10/18 05:17:17;;;;;;;122.13;63.80;;;;;;;;;;5018865;28;20030;-80
2021/10/18 05:19:43;;;;;;;116.13;60.42;;;;;;;;;;5018783;28;20037;-79
2021/10/18 05:22:09;;;;;;;108.82;57.47;;;;;;;;;;5018521;28;20022;-81
2021/10/18 05:24:35;;;;;;;115.60;60.25;;;;;;;;;;5018464;28;20080;-80
2021/10/18 05:27:01;;;;;;;132.68;62.80;;;;;;;;;;5018129;28;20037;-81
2021/10/18 05:29:27;;;;;;;116.95;58.85;;;;;;;;;;5018766;28;20319;-81
2021/10/18 05:31:53;;;;;;;126.28;58.22;;;;;;;;;;5019533;28;20518;-81
2021/10/18 05:34:20;;;;;;;113.18;52.90;;;;;;;;;;5000830;28;20340;-81
2021/10/18 05:36:46;;;;;;;89.57;47.80;;;;;;;;;;5000935;28;20026;-81
2021/10/18 05:39:12;;;;;;;84.47;47.58;;;;;;;;;;5017978;28;20350;-80
2021/10/18 05:41:38;;;;;;;87.35;47.10;;;;;;;;;;5016763;28;20344;-80
2021/10/18 05:44:04;;;;;;;89.47;51.55;;;;;;;;;;5018375;28;20109;-80
2021/10/18 05:46:31;;;;;;;106.35;64.18;;;;;;;;;;5018393;28;20026;-79
2021/10/18 05:48:57;;;;;;;127.20;73.63;;;;;;;;;;5016941;28;20420;-80
2021/10/18 05:51:25;;;;;;;122.88;72.40;;;;;;;;;;5018722;28;20085;-80
2021/10/18 05:53:51;;;;;;;108.85;62.60;;;;;;;;;;5013719;28;20045;-79
2021/10/18 05:56:17;;;;;;;99.22;52.65;;;;;;;;;;5036350;28;20029;-80
2021/10/18 05:58:46;;;;;;;116.10;56.63;;;;;;;;;;5032910;28;20021;-82
2021/10/18 06:01:13;;;;;;;145.00;65.43;;;;;;;;;;5017756;28;20053;-81
2021/10/18 06:03:40;;;;;;;175.88;79.00;;;;;;;;;;5003860;28;20064;-74
2021/10/18 06:06:08;;;;;;;177.30;77.05;;;;;;;;;;5021307;28;20125;-74
2021/10/18 06:08:36;;;;;;;151.52;69.50;;;;;;;;;;5018339;28;20049;-73
2021/10/18 06:11:04;;;;;;;151.18;75.63;;;;;;;;;;5017087;28;20021;-73
2021/10/18 06:13:30;;;;;;;156.73;81.10;;;;;;;;;;5017825;28;20018;-73
2021/10/18 06:15:56;;;;;;;185.23;106.53;;;;;;;;;;5017389;28;20054;-73
2021/10/18 06:18:23;;;;;;;222.25;134.57;;;;;;;;;;5017250;28;20352;-73
2021/10/18 06:20:50;;;;;;;204.52;127.43;;;;;;;;;;5017631;28;20050;-73
2021/10/18 06:23:16;;;;;;;213.82;138.48;;;;;;;;;;5017546;28;20026;-73
2021/10/18 06:25:43;;;;;;;189.77;133.48;;;;;;;;;;5017362;28;20101;-73
2021/10/18 06:28:09;;;;;;;180.60;125.65;;;;;;;;;;5017595;28;20029;-73
2021/10/18 06:30:35;;;;;;;159.32;109.45;;;;;;;;;;5017559;28;20022;-73
2021/10/18 06:33:03;;;;;;;128.40;87.43;;;;;;;;;;5017346;28;20435;-73
2021/10/18 06:35:29;;;;;;;119.82;73.65;;;;;;;;;;5017357;28;20034;-73
2021/10/18 06:37:55;;;;;;;98.43;58.42;;;;;;;;;;5017440;28;20042;-73
2021/10/18 06:40:21;;;;;;;86.00;51.15;;;;;;;;;;5017200;28;20033;-72
2021/10/18 06:42:47;;;;;;;96.63;54.65;;;;;;;;;;5017225;28;20018;-73
2021/10/18 06:45:14;;;;;;;100.80;58.05;;;;;;;;;;5017379;28;20109;-73
2021/10/18 06:47:40;;;;;;;100.55;56.30;;;;;;;;;;5017031;28;20476;-73
2021/10/18 06:50:07;;;;;;;93.90;54.95;;;;;;;;;;5017270;28;20034;-73
2021/10/18 06:52:36;;;;;;;93.35;53.90;;;;;;;;;;5017200;28;20029;-73
2021/10/18 06:55:05;;;;;;;97.32;55.63;;;;;;;;;;5016976;28;20077;-73
2021/10/18 06:57:31;;;;;;;101.68;56.53;;;;;;;;;;5016988;28;20022;-72
2021/10/18 06:59:58;;;;;;;92.85;53.08;;;;;;;;;;5021886;28;20144;-73
2021/10/18 07:02:24;;;;;;;90.63;54.08;;;;;;;;;;5036694;28;20028;-73
2021/10/18 07:04:50;;;;;;;95.07;51.45;;;;;;;;;;5036784;28;20355;-72
2021/10/18 07:07:16;;;;;;;75.55;47.20;;;;;;;;;;5036639;28;20483;-73
2021/10/18 07:09:43;;;;;;;79.88;44.45;;;;;;;;;;5037009;28;20029;-73
2021/10/18 07:12:11;;;;;;;64.53;39.00;;;;;;;;;;5036852;28;20030;-74
2021/10/18 07:14:38;;;;;;;64.90;38.75;;;;;;;;;;5036474;28;20021;-72
2021/10/18 07:17:04;;;;;;;119.25;72.05;;;;;;;;;;5036728;28;20026;-72
2021/10/18 07:19:30;;;;;;;96.95;63.90;;;;;;;;;;5036455;28;20013;-73
2021/10/18 07:21:56;;;;;;;89.43;50.22;;;;;;;;;;5036681;28;20041;-73
2021/10/18 07:24:22;;;;;;;79.43;46.28;;;;;;;;;;5040456;28;20358;-73
2021/10/18 07:26:50;;;;;;;67.63;40.22;;;;;;;;;;5040575;28;20032;-72
2021/10/18 07:29:17;;;;;;;64.22;38.78;;;;;;;;;;5040380;28;20021;-72
2021/10/18 07:31:43;;;;;;;60.47;37.75;;;;;;;;;;5022126;28;20038;-72
2021/10/18 07:34:18;;;;;;;55.25;35.17;;;;;;;;;;5040368;28;20040;-72
2021/10/18 07:36:49;;;;;;;59.75;36.72;;;;;;;;;;5040437;28;20136;-72
2021/10/18 07:39:19;;;;;;;40.85;25.13;;;;;;;;;;5040418;28;20032;-72
2021/10/18 07:41:46;;;;;;;52.75;32.55;;;;;;;;;;5040290;28;20033;-72
2021/10/18 07:44:12;;;;;;;43.53;28.80;;;;;;;;;;5040309;28;20309;-73
2021/10/18 07:46:38;;;;;;;46.50;27.90;;;;;;;;;;5040203;28;20026;-72
2021/10/18 07:49:04;;;;;;;40.38;26.05;;;;;;;;;;5040063;28;20406;-72
2021/10/18 07:51:30;;;;;;;44.70;26.05;;;;;;;;;;5040086;28;20028;-73
2021/10/18 07:53:56;;;;;;;40.05;25.63;;;;;;;;;;5039836;28;20033;-72
2021/10/18 07:56:22;;;;;;;39.67;24.48;;;;;;;;;;5039982;28;20049;-72
2021/10/18 07:58:48;;;;;;;38.80;24.92;;;;;;;;;;5038660;28;20026;-72
2021/10/18 08:01:14;;;;;;;44.15;25.08;;;;;;;;;;5037879;28;20057;-72
2021/10/18 08:03:40;;;;;;;34.47;21.60;;;;;;;;;;5020759;28;20466;-73
2021/10/18 08:06:06;;;;;;;22.20;16.13;;;;;;;;;;5039745;28;20033;-71
2021/10/18 08:08:40;;;;;;;26.88;17.80;;;;;;;;;;5039357;28;20168;-72
2021/10/18 08:11:07;;;;;;;28.98;18.98;;;;;;;;;;5039612;28;20408;-72
2021/10/18 08:13:33;;;;;;;21.13;14.90;;;;;;;;;;5039640;28;20454;-72
2021/10/18 08:15:59;;;;;;;28.95;15.77;;;;;;;;;;5039684;28;20029;-72
2021/10/18 08:18:25;;;;;;;29.45;17.00;;;;;;;;;;5039505;28;20101;-72
2021/10/18 08:20:51;;;;;;;30.52;18.50;;;;;;;;;;5039539;28;20025;-72
2021/10/18 08:23:17;;;;;;;30.58;19.13;;;;;;;;;;5039378;28;20485;-72
2021/10/18 08:25:43;;;;;;;50.03;29.92;;;;;;;;;;5039567;28;20056;-71
2021/10/18 08:28:10;;;;;;;63.15;35.00;;;;;;;;;;5039467;28;20017;-72
2021/10/18 08:30:37;;;;;;;34.28;21.08;;;;;;;;;;5039290;28;20053;-71
2021/10/18 08:33:03;;;;;;;47.85;27.92;;;;;;;;;;5038810;28;20022;-72
2021/10/18 08:35:29;;;;;;;50.17;24.13;;;;;;;;;;5039177;28;20084;-72
2021/10/18 08:41:02;;;;;;;47.55;26.20;;;;;;;;;;4997983;28;20523;-72
2021/10/18 08:46:03;;;;;;;48.08;24.48;;;;;;;;;;4997931;28;20031;-72
2021/10/18 08:48:30;;;;;;;43.33;23.95;;;;;;;;;;4997720;28;20532;-72
2021/10/18 08:50:56;;;;;;;40.42;22.50;;;;;;;;;;4997708;28;20027;-72
2021/10/18 08:53:22;;;;;;;34.30;20.17;;;;;;;;;;4997902;28;20461;-72
2021/10/18 08:55:48;;;;;;;32.38;19.75;;;;;;;;;;4997634;28;20026;-72
2021/10/18 08:58:14;;;;;;;25.95;16.00;;;;;;;;;;4997482;28;20034;-72
2021/10/18 09:00:42;;;;;;;25.23;15.10;;;;;;;;;;4997427;28;20133;-73
2021/10/18 09:03:32;;;;;;;23.25;15.68;;;;;;;;;;4997447;28;20381;-72
2021/10/18 09:06:11;;;;;;;28.55;18.80;;;;;;;;;;4997473;28;20045;-73
2021/10/18 09:08:41;;;;;;;29.17;18.67;;;;;;;;;;4997140;28;20045;-73
2021/10/18 09:11:07;;;;;;;30.05;17.23;;;;;;;;;;5007530;28;20423;-73
2021/10/18 09:13:34;;;;;;;32.85;19.02;;;;;;;;;;5037966;28;20025;-72
2021/10/18 09:16:00;;;;;;;32.40;19.85;;;;;;;;;;5038312;28;20021;-72
2021/10/18 09:18:26;;;;;;;23.50;15.65;;;;;;;;;;5038681;28;20026;-73
2021/10/18 09:20:52;;;;;;;24.65;15.25;;;;;;;;;;5038046;28;20039;-72
2021/10/18 09:25:57;;;;;;;29.80;18.65;;;;;;;;;;5038336;28;20026;-72
2021/10/18 09:28:24;;;;;;;28.27;19.08;;;;;;;;;;5030177;28;20024;-73
2021/10/18 09:30:51;;;;;;;27.65;17.27;;;;;;;;;;5038255;28;20018;-75
2021/10/18 09:33:23;;;;;;;24.02;17.77;;;;;;;;;;5038133;28;20423;-73
2021/10/18 09:35:50;;;;;;;29.35;19.00;;;;;;;;;;5038205;28;20063;-73
2021/10/18 09:38:18;;;;;;;25.42;16.52;;;;;;;;;;5020746;28;20105;-73
2021/10/18 09:40:45;;;;;;;29.02;19.13;;;;;;;;;;5020893;28;20025;-74
2021/10/18 09:43:17;;;;;;;30.60;20.50;;;;;;;;;;5037899;28;20033;-74
2021/10/18 09:45:43;;;;;;;;;;;;;;;;;;5037427;28;20368;-73
2021/10/18 10:52:46;;;;;;;13.82;7.15;;;;;;;;;;4937630;29;20064;-73
2021/10/18 10:55:22;;;;;;;13.02;7.70;;;;;;;;;;4935268;29;20461;-73
2021/10/18 10:57:49;;;;;;;10.43;7.13;;;;;;;;;;4942858;29;20040;-73
2021/10/18 11:00:30;;;;;;;10.07;6.95;;;;;;;;;;4943978;29;20055;-73
2021/10/18 11:03:15;;;;;;;10.85;7.50;;;;;;;;;;4944259;29;20079;-73
2021/10/18 11:05:59;;;;;;;16.15;7.80;;;;;;;;;;4944033;29;20370;-73
2021/10/18 11:08:33;;;;;;;11.95;7.53;;;;;;;;;;4944033;29;20028;-73
2021/10/18 11:11:09;;;;;;;11.45;8.45;;;;;;;;;;4980368;28;20061;-73
2021/10/18 11:13:46;;;;;;;13.98;8.80;;;;;;;;;;5003866;28;20424;-73
2021/10/18 11:16:13;;;;;;;11.48;7.38;;;;;;;;;;5003734;28;20034;-73
2021/10/18 11:18:39;;;;;;;16.15;9.43;;;;;;;;;;5003844;28;20045;-74
2021/10/18 11:21:22;;;;;;;28.15;17.05;;;;;;;;;;5003786;28;20073;-74
2021/10/18 11:26:36;;;;;;;39.28;24.50;;;;;;;;;;5149262;23;20085;-78
2021/10/18 11:29:05;;;;;;;19.40;12.57;;;;;;;;;;5043299;28;20038;-78
2021/10/18 11:31:32;;;;;;;15.40;9.50;;;;;;;;;;5043165;28;20075;-78
2021/10/18 11:34:21;;;;;;;19.02;9.05;;;;;;;;;;5043101;28;20040;-78
2021/10/18 11:36:49;;;;;;;23.67;13.60;;;;;;;;;;5042128;28;20025;-78
2021/10/18 11:39:23;;;;;;;17.55;9.75;;;;;;;;;;5042807;28;20021;-79
2021/10/18 11:42:04;;;;;;;26.10;14.35;;;;;;;;;;5041884;28;20060;-79
2021/10/18 11:44:44;;;;;;;26.38;13.35;;;;;;;;;;5025351;28;20053;-79
2021/10/18 11:47:33;;;;;;;29.08;11.85;;;;;;;;;;5042968;28;20022;-78
2021/10/18 11:50:02;;;;;;;20.95;10.18;;;;;;;;;;5034968;28;20048;-79
2021/10/18 11:52:28;;;;;;;28.48;11.85;;;;;;;;;;5024820;28;20124;-78
2021/10/18 11:54:54;;;;;;;13.07;8.73;;;;;;;;;;5042846;28;20049;-79
2021/10/18 11:57:20;;;;;;;18.75;9.80;;;;;;;;;;5043041;28;20025;-79
2021/10/18 11:59:47;;;;;;;13.77;10.02;;;;;;;;;;5041943;28;20030;-79
2021/10/18 12:02:19;;;;;;;18.58;10.57;;;;;;;;;;5042900;28;20407;-79
2021/10/18 12:04:58;;;;;;;9.48;7.40;;;;;;;;;;5042980;28;20075;-79
2021/10/18 12:07:43;;;;;;;13.18;7.00;;;;;;;;;;5041611;28;20411;-79
2021/10/18 12:10:13;;;;;;;10.05;6.72;;;;;;;;;;5039460;28;20037;-78
2021/10/18 12:12:39;;;;;;;11.20;7.53;;;;;;;;;;5038358;28;20040;-79
2021/10/18 12:15:06;;;;;;;10.13;6.07;;;;;;;;;;5039366;28;20067;-77
2021/10/18 12:17:34;;;;;;;16.15;8.68;;;;;;;;;;5037954;28;20037;-76
2021/10/18 12:20:00;;;;;;;9.77;5.18;;;;;;;;;;5039559;28;20041;-77
2021/10/18 12:22:27;;;;;;;7.65;5.40;;;;;;;;;;5039727;28;20022;-77
2021/10/18 12:25:03;;;;;;;11.80;6.57;;;;;;;;;;5037633;28;20029;-76
2021/10/18 12:27:29;;;;;;;12.70;6.75;;;;;;;;;;5039016;28;20103;-76
2021/10/18 12:29:56;;;;;;;10.75;6.53;;;;;;;;;;5021439;28;20453;-76
2021/10/18 12:32:22;;;;;;;15.68;5.70;;;;;;;;;;5021526;28;20041;-76
2021/10/18 12:35:01;;;;;;;9.98;4.75;;;;;;;;;;5039109;28;20469;-78
2021/10/18 12:37:27;;;;;;;9.52;4.65;;;;;;;;;;5021459;28;20427;-78
2021/10/18 12:39:56;;;;;;;8.50;5.00;;;;;;;;;;5039298;28;20025;-78
2021/10/18 12:42:29;;;;;;;6.60;4.88;;;;;;;;;;5039197;28;20067;-78
2021/10/18 12:45:04;;;;;;;7.95;5.80;;;;;;;;;;5039007;28;20025;-78
2021/10/18 12:47:30;;;;;;;7.70;5.00;;;;;;;;;;5039156;28;20104;-78
2021/10/18 12:50:06;;;;;;;10.43;5.50;;;;;;;;;;5039155;28;20032;-78
2021/10/18 12:52:33;;;;;;;10.85;6.85;;;;;;;;;;5021152;28;20044;-76
2021/10/18 12:55:00;;;;;;;9.70;5.72;;;;;;;;;;5038859;28;20319;-77
2021/10/18 12:57:27;;;;;;;12.68;5.78;;;;;;;;;;5039168;28;20331;-77
2021/10/18 13:00:02;;;;;;;16.02;6.60;;;;;;;;;;5039057;28;20037;-76
2021/10/18 13:02:30;;;;;;;11.38;5.88;;;;;;;;;;5038839;28;20021;-76
2021/10/18 13:05:00;;;;;;;9.93;6.53;;;;;;;;;;5038752;28;20033;-76
2021/10/18 13:07:26;;;;;;;10.27;6.30;;;;;;;;;;5038780;28;20408;-76
2021/10/18 13:09:52;;;;;;;8.95;5.85;;;;;;;;;;5020774;28;20488;-76
2021/10/18 13:12:18;;;;;;;14.80;6.63;;;;;;;;;;5038528;28;20071;-76
2021/10/18 13:14:44;;;;;;;10.35;6.63;;;;;;;;;;5038394;28;20033;-76
2021/10/18 13:17:10;;;;;;;18.55;6.90;;;;;;;;;;5038510;28;20371;-76
2021/10/18 13:19:36;;;;;;;24.65;10.07;;;;;;;;;;5037717;28;20415;-76
2021/10/18 13:22:03;;;;;;;51.35;22.05;;;;;;;;;;5038283;28;20046;-77
2021/10/18 13:24:30;;;;;;;37.80;20.15;;;;;;;;;;5038142;28;20378;-76
2021/10/18 13:26:57;;;;;;;66.95;32.70;;;;;;;;;;5038024;28;20151;-76
2021/10/18 13:29:24;;;;;;;30.73;13.75;;;;;;;;;;5038214;28;20076;-77
2021/10/18 13:31:50;;;;;;;44.20;14.23;;;;;;;;;;5038243;28;20071;-76
2021/10/18 13:34:16;;;;;;;21.83;8.10;;;;;;;;;;5038213;28;20022;-76
2021/10/18 13:36:42;;;;;;;11.32;5.78;;;;;;;;;;5038291;28;20022;-76
2021/10/18 13:39:08;;;;;;;17.75;9.95;;;;;;;;;;5038105;28;20049;-76
2021/10/18 13:41:34;;;;;;;14.55;7.43;;;;;;;;;;5020235;28;20041;-75
2021/10/18 13:44:01;;;;;;;19.95;8.85;;;;;;;;;;5038048;28;20021;-77
2021/10/18 13:46:27;;;;;;;20.05;10.15;;;;;;;;;;5038193;28;20026;-76
2021/10/18 13:48:53;;;;;;;17.63;8.82;;;;;;;;;;5038082;28;20048;-76
2021/10/18 13:51:21;;;;;;;13.13;7.82;;;;;;;;;;5037869;28;20032;-76
2021/10/18 13:53:47;;;;;;;9.00;6.15;;;;;;;;;;5037902;28;20021;-76
2021/10/18 13:56:13;;;;;;;11.15;6.13;;;;;;;;;;5037595;28;20028;-76
2021/10/18 13:58:40;;;;;;;10.07;6.43;;;;;;;;;;5020163;28;20029;-76
2021/10/18 14:01:06;;;;;;;11.10;6.60;;;;;;;;;;5037697;28;20021;-76
2021/10/18 14:03:33;;;;;;;14.13;7.13;;;;;;;;;;5037507;28;20079;-76
2021/10/18 14:05:59;;;;;;;9.43;6.40;;;;;;;;;;5020202;28;20033;-76
2021/10/18 14:08:25;;;;;;;18.13;8.80;;;;;;;;;;5020120;28;20067;-75
2021/10/18 14:10:51;;;;;;;32.35;18.00;;;;;;;;;;5037528;28;20296;-76
2021/10/18 14:13:17;;;;;;;19.88;11.07;;;;;;;;;;5037391;28;20129;-76
2021/10/18 14:15:43;;;;;;;24.27;12.05;;;;;;;;;;5037647;28;20075;-76
2021/10/18 14:18:09;;;;;;;22.00;12.48;;;;;;;;;;5019726;28;20040;-76
2021/10/18 14:20:36;;;;;;;18.88;10.90;;;;;;;;;;5037348;28;20478;-79
2021/10/18 14:23:03;;;;;;;14.70;7.43;;;;;;;;;;5037115;28;20029;-78
2021/10/18 14:25:29;;;;;;;20.10;10.02;;;;;;;;;;5037271;28;20048;-79
2021/10/18 14:27:56;;;;;;;21.13;11.57;;;;;;;;;;5019161;28;20049;-78
2021/10/18 14:30:22;;;;;;;20.10;12.35;;;;;;;;;;5037111;28;20045;-78
2021/10/18 14:32:53;;;;;;;17.13;11.88;;;;;;;;;;5036713;28;20033;-78
2021/10/18 14:35:19;;;;;;;20.77;11.50;;;;;;;;;;5019614;28;20124;-75
2021/10/18 14:37:45;;;;;;;17.70;11.30;;;;;;;;;;5037225;28;20052;-76
2021/10/18 14:40:11;;;;;;;24.05;13.23;;;;;;;;;;5036685;28;20072;-75
2021/10/18 14:42:37;;;;;;;15.90;9.63;;;;;;;;;;5037028;28;20017;-76
2021/10/18 14:45:04;;;;;;;17.45;11.07;;;;;;;;;;5036961;28;20022;-75
2021/10/18 14:47:30;;;;;;;10.48;8.27;;;;;;;;;;5026250;28;20478;-75
2021/10/18 14:49:56;;;;;;;16.02;10.30;;;;;;;;;;5018826;28;20033;-76
2021/10/18 14:52:23;;;;;;;52.65;26.40;;;;;;;;;;5036516;28;20025;-75
2021/10/18 14:54:49;;;;;;;41.55;25.38;;;;;;;;;;5036826;28;20033;-76
2021/10/18 14:57:15;;;;;;;48.03;24.40;;;;;;;;;;5030995;28;20108;-75
2021/10/18 14:59:42;;;;;;;86.07;40.03;;;;;;;;;;5017003;28;20026;-75
2021/10/18 15:02:11;;;;;;;90.28;47.10;;;;;;;;;;5017109;28;20018;-75
2021/10/18 15:04:37;;;;;;;64.20;35.08;;;;;;;;;;5017018;28;20030;-75
2021/10/18 15:07:05;;;;;;;47.92;26.15;;;;;;;;;;5000566;28;20057;-75
2021/10/18 15:09:32;;;;;;;67.03;34.03;;;;;;;;;;5017071;28;20029;-76
2021/10/18 15:11:58;;;;;;;62.22;32.05;;;;;;;;;;5016756;28;20089;-76
2021/10/18 15:14:24;;;;;;;73.68;37.75;;;;;;;;;;5017099;28;20026;-75
2021/10/18 15:16:51;;;;;;;80.38;38.28;;;;;;;;;;5020345;28;20033;-75
2021/10/18 15:19:17;;;;;;;90.40;42.40;;;;;;;;;;5027444;28;20034;-76
2021/10/18 15:21:44;;;;;;;79.53;40.65;;;;;;;;;;5035889;28;20028;-75
2021/10/18 15:24:14;;;;;;;102.07;50.00;;;;;;;;;;5025783;28;20311;-75
2021/10/18 15:26:40;;;;;;;119.80;54.40;;;;;;;;;;5009615;28;20092;-75
2021/10/18 15:29:06;;;;;;;143.27;65.05;;;;;;;;;;5016571;28;20034;-76
2021/10/18 15:31:32;;;;;;;106.97;49.72;;;;;;;;;;5030381;28;20104;-75
2021/10/18 15:33:59;;;;;;;109.68;50.67;;;;;;;;;;5035683;28;20067;-76